Time;durP1;ratioP1;P1;durP2;ratioP2;P2;SDS_P1;SDS_P2;PMS_P1;PMS_P2;Temp;Humidity;BMP_temperature;BMP_pressure;BME280_temperature;BME280_humidity;BME280_pressure;Samples;Min_cycle;Max_cycle;Signal;HPM_P1;HPM_P2
2021/01/13 00:01:18;;;;;;;12.43;1.40;;;3.70;80.00;;;;;;5023907;28;20066;-77
2021/01/13 00:03:44;;;;;;;10.07;1.13;;;3.80;79.30;;;;;;5050295;28;20048;-78
2021/01/13 00:06:15;;;;;;;10.88;1.52;;;3.80;79.00;;;;;;5040686;28;20090;-77
2021/01/13 00:08:41;;;;;;;11.15;1.77;;;3.80;79.00;;;;;;5050985;28;20120;-76
2021/01/13 00:11:07;;;;;;;14.18;2.47;;;3.80;79.30;;;;;;5042782;28;20185;-77
2021/01/13 00:13:33;;;;;;;7.80;1.58;;;3.90;79.10;;;;;;5049899;28;20032;-77
2021/01/13 00:16:01;;;;;;;12.77;2.22;;;3.90;79.60;;;;;;5049113;28;20037;-78
2021/01/13 00:18:27;;;;;;;15.90;1.77;;;4.00;79.10;;;;;;5028212;28;20075;-78
2021/01/13 00:20:53;;;;;;;14.27;2.22;;;3.90;79.30;;;;;;5050435;28;20107;-76
2021/01/13 00:23:19;;;;;;;15.68;2.05;;;4.00;79.30;;;;;;5056401;28;20098;-77
2021/01/13 00:25:44;;;;;;;6.93;1.58;;;3.90;79.40;;;;;;5044501;28;20111;-77
2021/01/13 00:28:10;;;;;;;9.80;2.25;;;3.90;79.50;;;;;;5044451;28;20119;-77
2021/01/13 00:30:36;;;;;;;10.43;1.52;;;3.80;79.70;;;;;;5051036;28;20038;-77
2021/01/13 00:33:02;;;;;;;10.65;1.38;;;3.80;79.80;;;;;;5008414;28;20048;-77
2021/01/13 00:35:28;;;;;;;13.73;1.65;;;3.80;80.10;;;;;;5036482;28;20041;-77
2021/01/13 00:37:53;;;;;;;16.75;1.58;;;3.80;80.30;;;;;;5026006;28;20041;-77
2021/01/13 00:40:19;;;;;;;6.55;1.30;;;3.80;81.00;;;;;;5044201;28;20476;-77
2021/01/13 00:42:47;;;;;;;8.65;1.55;;;3.80;80.90;;;;;;5050459;28;20032;-77
2021/01/13 00:45:15;;;;;;;8.85;1.50;;;3.70;81.10;;;;;;5043978;28;22274;-77
2021/01/13 00:47:42;;;;;;;9.73;2.50;;;3.70;81.40;;;;;;5044050;28;20060;-77
2021/01/13 00:50:10;;;;;;;9.98;1.58;;;3.60;81.80;;;;;;5050809;28;20444;-77
2021/01/13 00:52:36;;;;;;;11.13;1.50;;;3.60;82.00;;;;;;5035109;28;20502;-77
2021/01/13 00:55:03;;;;;;;10.05;1.10;;;3.60;82.20;;;;;;5040114;28;20066;-77
2021/01/13 00:57:29;;;;;;;6.35;1.17;;;3.60;82.30;;;;;;5053140;28;20079;-76
2021/01/13 00:59:55;;;;;;;13.85;1.80;;;3.60;82.50;;;;;;5060253;28;20393;-76
2021/01/13 01:02:21;;;;;;;10.95;1.75;;;3.50;82.90;;;;;;5060036;28;20071;-75
2021/01/13 01:04:47;;;;;;;13.23;1.67;;;3.50;83.10;;;;;;5052841;28;20041;-76
2021/01/13 01:07:13;;;;;;;14.32;1.63;;;3.50;83.60;;;;;;5052926;28;20037;-75
2021/01/13 01:09:39;;;;;;;13.13;1.80;;;3.50;83.80;;;;;;5040739;28;20473;-76
2021/01/13 01:12:07;;;;;;;10.23;2.00;;;3.40;83.70;;;;;;5052397;28;20115;-76
2021/01/13 01:14:33;;;;;;;7.88;1.20;;;3.40;83.80;;;;;;5052563;28;20178;-76
2021/01/13 01:16:58;;;;;;;13.05;1.92;;;3.40;84.00;;;;;;5052410;28;20128;-76
2021/01/13 01:19:24;;;;;;;15.15;1.90;;;3.40;84.40;;;;;;5052255;28;20067;-77
2021/01/13 01:21:50;;;;;;;14.18;2.38;;;3.30;84.70;;;;;;5053090;28;20036;-77
2021/01/13 01:24:16;;;;;;;13.07;1.98;;;3.30;85.00;;;;;;5047050;28;20396;-76
2021/01/13 01:26:46;;;;;;;13.65;2.65;;;3.30;84.90;;;;;;5056806;28;20037;-76
2021/01/13 01:29:13;;;;;;;16.13;2.00;;;3.40;85.10;;;;;;5053374;28;20036;-76
2021/01/13 01:31:39;;;;;;;11.80;3.13;;;3.40;85.20;;;;;;5053343;28;20122;-76
2021/01/13 01:34:04;;;;;;;8.85;1.95;;;3.30;85.30;;;;;;5059648;28;20033;-76
2021/01/13 01:36:30;;;;;;;14.95;2.35;;;3.40;85.20;;;;;;5030119;28;20037;-76
2021/01/13 01:38:56;;;;;;;11.98;2.25;;;3.40;85.20;;;;;;5054749;28;20488;-76
2021/01/13 01:41:23;;;;;;;9.50;1.52;;;3.40;85.10;;;;;;5042099;28;20044;-76
2021/01/13 01:43:49;;;;;;;8.30;1.33;;;3.40;85.20;;;;;;5046488;28;20033;-77
2021/01/13 01:46:17;;;;;;;6.22;0.90;;;3.40;85.20;;;;;;5041300;28;20114;-76
2021/01/13 01:48:50;;;;;;;7.05;1.10;;;3.50;85.00;;;;;;5049748;28;20431;-76
2021/01/13 01:51:19;;;;;;;;;;;3.50;85.00;;;;;;5055255;28;20110;-75
2021/01/13 01:53:54;;;;;;;4.13;0.90;;;3.40;85.70;;;;;;5071758;28;20011;-75
2021/01/13 01:56:23;;;;;;;6.22;0.90;;;3.40;85.60;;;;;;5071466;28;20051;-75
2021/01/13 01:58:57;;;;;;;12.63;0.88;;;3.40;86.00;;;;;;5072449;28;20063;-76
2021/01/13 02:01:37;;;;;;;8.90;1.02;;;3.40;86.40;;;;;;5072604;28;20088;-75
2021/01/13 02:04:11;;;;;;;7.07;1.10;;;3.40;87.10;;;;;;5059548;28;20032;-75
2021/01/13 02:07:04;;;;;;;8.90;1.15;;;3.40;86.60;;;;;;5060176;28;20048;-75
2021/01/13 02:09:30;;;;;;;9.80;1.20;;;3.40;86.60;;;;;;5059669;28;20480;-75
2021/01/13 02:11:58;;;;;;;12.80;1.23;;;3.40;86.80;;;;;;5077084;28;20105;-83
2021/01/13 02:14:26;;;;;;;15.18;1.83;;;3.40;86.70;;;;;;5066456;28;20067;-84
2021/01/13 02:16:56;;;;;;;10.48;1.80;;;3.50;86.80;;;;;;5067437;28;20036;-84
2021/01/13 02:19:47;;;;;;;18.02;3.25;;;3.50;86.70;;;;;;5065454;28;20086;-84
2021/01/13 02:22:19;;;;;;;8.18;1.35;;;3.50;86.70;;;;;;5084150;28;20468;-83
2021/01/13 02:25:03;;;;;;;16.35;2.15;;;3.50;86.60;;;;;;5081494;28;20455;-83
2021/01/13 02:27:35;;;;;;;15.93;1.55;;;3.50;86.70;;;;;;5083570;28;20055;-83
2021/01/13 02:30:02;;;;;;;13.30;1.92;;;3.50;86.70;;;;;;5070886;28;20033;-83
2021/01/13 02:32:34;;;;;;;7.57;1.35;;;3.40;86.90;;;;;;5065258;28;20125;-83
2021/01/13 02:35:25;;;;;;;15.88;2.13;;;3.50;87.10;;;;;;5082746;28;20043;-83
2021/01/13 02:38:12;;;;;;;12.68;2.33;;;3.50;87.20;;;;;;5066516;28;20094;-83
2021/01/13 02:40:47;;;;;;;11.57;2.20;;;3.40;87.20;;;;;;5062083;28;20040;-83
2021/01/13 02:43:17;;;;;;;9.93;1.95;;;3.40;87.70;;;;;;5074957;28;20036;-83
2021/01/13 02:45:45;;;;;;;8.25;3.10;;;3.40;87.30;;;;;;5076565;28;20114;-83
2021/01/13 02:48:22;;;;;;;11.38;2.65;;;3.50;87.20;;;;;;5064689;28;20042;-83
2021/01/13 02:50:59;;;;;;;13.57;1.58;;;3.50;87.10;;;;;;5061417;28;20125;-83
2021/01/13 02:53:30;;;;;;;13.70;2.00;;;3.40;87.10;;;;;;5058517;28;20036;-83
2021/01/13 02:55:56;;;;;;;9.43;1.83;;;3.40;87.10;;;;;;5076272;28;20042;-83
2021/01/13 02:58:25;;;;;;;12.63;1.52;;;3.40;87.20;;;;;;5080283;28;20468;-83
2021/01/13 03:00:52;;;;;;;16.98;2.95;;;3.40;87.10;;;;;;5081485;28;20040;-82
2021/01/13 03:03:18;;;;;;;11.95;1.77;;;3.40;87.40;;;;;;5079846;28;20030;-83
2021/01/13 03:05:45;;;;;;;8.00;2.03;;;3.40;87.40;;;;;;5066424;28;20081;-83
2021/01/13 03:08:12;;;;;;;10.57;2.08;;;3.40;88.30;;;;;;5065760;28;20055;-83
2021/01/13 03:10:39;;;;;;;9.32;1.60;;;3.40;88.10;;;;;;5065330;28;20078;-83
2021/01/13 03:13:10;;;;;;;9.68;1.45;;;3.40;87.70;;;;;;5075810;28;20039;-82
2021/01/13 03:15:37;;;;;;;11.63;1.73;;;3.40;87.60;;;;;;5079295;28;20120;-82
2021/01/13 03:18:05;;;;;;;12.32;1.55;;;3.50;87.50;;;;;;5079604;28;20064;-82
2021/01/13 03:20:38;;;;;;;10.45;2.25;;;3.50;87.50;;;;;;5062622;28;20084;-82
2021/01/13 03:23:19;;;;;;;14.93;1.65;;;3.60;87.50;;;;;;5068547;28;20063;-83
2021/01/13 03:25:53;;;;;;;14.20;2.95;;;3.60;87.40;;;;;;5077977;28;20438;-83
2021/01/13 03:28:23;;;;;;;8.10;1.63;;;3.60;87.20;;;;;;5053026;28;20028;-83
2021/01/13 03:30:53;;;;;;;19.20;2.05;;;3.70;86.30;;;;;;5080256;28;20464;-82
2021/01/13 03:33:25;;;;;;;7.93;1.25;;;3.70;85.70;;;;;;5074917;28;20454;-83
2021/01/13 03:36:11;;;;;;;7.60;1.65;;;3.80;85.10;;;;;;5060913;28;20044;-82
2021/01/13 03:38:59;;;;;;;10.25;1.13;;;3.70;84.70;;;;;;5074903;28;20047;-83
2021/01/13 03:41:38;;;;;;;9.13;1.20;;;3.70;84.70;;;;;;5078132;28;20044;-83
2021/01/13 03:44:08;;;;;;;12.75;1.50;;;3.80;84.30;;;;;;5078799;28;20032;-83
2021/01/13 03:46:34;;;;;;;13.30;2.47;;;3.70;84.70;;;;;;5075144;28;20059;-83
2021/01/13 03:49:03;;;;;;;15.10;2.53;;;3.70;84.40;;;;;;5060344;28;20072;-83
2021/01/13 03:52:04;;;;;;;11.63;1.48;;;3.80;84.70;;;;;;5073189;28;20087;-83
2021/01/13 03:54:34;;;;;;;15.82;2.22;;;3.80;84.30;;;;;;5061100;28;20408;-83
2021/01/13 03:57:08;;;;;;;13.88;2.92;;;3.90;84.50;;;;;;5060963;28;20086;-83
2021/01/13 04:00:21;;;;;;;15.05;1.75;;;3.90;84.20;;;;;;5075885;28;20071;-84
2021/01/13 04:03:07;;;;;;;8.88;1.25;;;4.00;84.30;;;;;;4990915;28;20446;-82
2021/01/13 04:05:40;;;;;;;7.53;1.00;;;3.90;85.00;;;;;;4993823;28;20061;-82
2021/01/13 04:08:06;;;;;;;10.95;3.63;;;3.80;85.20;;;;;;5048327;28;20075;-83
2021/01/13 04:10:32;;;;;;;4.25;1.05;;;3.60;85.70;;;;;;5054845;28;20060;-83
2021/01/13 04:13:16;;;;;;;11.38;1.40;;;3.50;86.00;;;;;;5078772;28;20039;-83
2021/01/13 04:15:41;;;;;;;;;;;3.40;86.00;;;;;;5081177;28;20032;-83
2021/01/13 04:18:10;;;;;;;7.70;1.60;;;3.40;86.40;;;;;;5076941;28;20793;-83
2021/01/13 04:20:37;;;;;;;22.73;4.00;;;3.30;86.50;;;;;;5060886;28;20503;-83
2021/01/13 04:23:06;;;;;;;14.70;2.92;;;3.30;86.60;;;;;;5080914;28;20040;-82
2021/01/13 04:25:33;;;;;;;12.02;1.70;;;3.40;87.00;;;;;;5075557;28;20381;-81
2021/01/13 04:27:59;;;;;;;10.57;1.40;;;3.50;87.60;;;;;;5050672;28;20058;-82
2021/01/13 04:30:26;;;;;;;8.77;1.48;;;3.50;87.60;;;;;;5065240;28;20032;-82
2021/01/13 04:32:56;;;;;;;10.27;1.02;;;3.40;89.20;;;;;;5078155;28;20090;-82
2021/01/13 04:35:23;;;;;;;8.50;1.05;;;3.30;89.30;;;;;;5080104;28;20032;-82
2021/01/13 04:37:56;;;;;;;5.65;1.10;;;3.20;89.40;;;;;;5081184;28;20040;-82
2021/01/13 04:40:39;;;;;;;4.60;0.77;;;3.20;89.60;;;;;;5079328;28;20067;-83
2021/01/13 04:43:07;;;;;;;10.75;1.27;;;3.10;89.40;;;;;;5069265;28;20036;-83
2021/01/13 04:45:42;;;;;;;7.10;0.73;;;3.10;89.30;;;;;;5081995;28;20105;-83
2021/01/13 04:48:10;;;;;;;6.47;1.15;;;3.10;88.90;;;;;;5073285;28;20124;-83
2021/01/13 04:50:42;;;;;;;8.68;0.77;;;3.10;88.80;;;;;;5067667;28;20120;-83
2021/01/13 04:53:12;;;;;;;6.13;1.00;;;3.10;88.50;;;;;;5065829;28;20029;-83
2021/01/13 04:55:50;;;;;;;7.50;0.80;;;3.10;88.50;;;;;;5077502;28;20043;-83
2021/01/13 04:58:51;;;;;;;6.95;1.20;;;3.10;88.40;;;;;;5060903;28;20424;-83
2021/01/13 05:01:35;;;;;;;14.65;0.90;;;3.10;88.40;;;;;;5075279;28;20033;-83
2021/01/13 05:04:07;;;;;;;;;;;3.20;88.60;;;;;;5058321;28;20036;-83
2021/01/13 05:06:48;;;;;;;9.68;0.90;;;3.10;88.30;;;;;;5072422;28;19920;-83
2021/01/13 05:09:16;;;;;;;9.25;2.38;;;3.10;88.10;;;;;;5073432;28;20033;-83
2021/01/13 05:11:49;;;;;;;8.98;1.00;;;3.10;88.30;;;;;;5071077;28;20137;-83
2021/01/13 05:14:17;;;;;;;7.13;1.25;;;3.10;88.00;;;;;;5073661;28;20039;-83
2021/01/13 05:16:49;;;;;;;5.55;0.70;;;3.10;87.90;;;;;;5062652;28;20040;-83
2021/01/13 05:19:41;;;;;;;8.48;1.38;;;3.00;88.10;;;;;;5070458;28;20040;-83
2021/01/13 05:22:11;;;;;;;6.50;1.02;;;3.00;88.40;;;;;;5027394;28;20059;-83
2021/01/13 05:24:40;;;;;;;14.38;2.08;;;3.00;88.40;;;;;;5071847;28;20447;-83
2021/01/13 05:27:37;;;;;;;10.75;1.23;;;3.00;88.60;;;;;;5059426;28;20036;-83
2021/01/13 05:30:25;;;;;;;9.02;0.90;;;3.00;88.70;;;;;;5031625;28;20043;-83
2021/01/13 05:32:56;;;;;;;11.20;1.90;;;3.00;89.00;;;;;;5071661;28;20051;-83
2021/01/13 05:35:28;;;;;;;12.57;1.48;;;3.00;88.60;;;;;;5053265;28;20105;-83
2021/01/13 05:38:04;;;;;;;8.80;1.60;;;3.10;88.40;;;;;;5071189;28;20037;-83
2021/01/13 05:40:30;;;;;;;8.93;1.23;;;3.10;88.20;;;;;;5078111;28;20111;-84
2021/01/13 05:42:59;;;;;;;7.63;1.40;;;3.10;87.90;;;;;;5076939;28;20091;-83
2021/01/13 05:45:26;;;;;;;8.00;1.20;;;3.20;87.60;;;;;;5081580;28;20082;-83
2021/01/13 05:47:54;;;;;;;10.90;1.40;;;3.30;87.50;;;;;;5079943;28;20479;-83
2021/01/13 05:50:23;;;;;;;5.60;1.13;;;3.30;87.00;;;;;;5076963;28;20045;-83
2021/01/13 05:52:52;;;;;;;12.00;1.10;;;3.40;87.10;;;;;;5067626;28;20032;-83
2021/01/13 05:55:19;;;;;;;16.60;1.45;;;3.50;87.20;;;;;;5082614;28;20046;-83
2021/01/13 05:57:57;;;;;;;13.88;2.20;;;3.50;86.80;;;;;;5065993;28;20033;-83
2021/01/13 06:00:26;;;;;;;10.40;1.40;;;3.60;86.80;;;;;;5054254;28;20056;-83
2021/01/13 06:03:03;;;;;;;13.60;1.30;;;3.70;86.80;;;;;;5078837;28;20091;-82
2021/01/13 06:05:31;;;;;;;13.80;2.38;;;3.70;86.40;;;;;;5069975;28;20123;-83
2021/01/13 06:07:59;;;;;;;12.05;2.28;;;3.80;86.50;;;;;;5067125;28;20063;-83
2021/01/13 06:10:34;;;;;;;18.70;1.73;;;3.80;86.60;;;;;;5062048;28;20511;-83
2021/01/13 06:13:02;;;;;;;8.95;2.38;;;3.80;86.70;;;;;;5061490;28;20107;-83
2021/01/13 06:15:29;;;;;;;13.63;1.63;;;3.80;86.90;;;;;;5054243;28;20047;-83
2021/01/13 06:17:56;;;;;;;10.70;1.63;;;3.80;87.00;;;;;;5082533;28;20472;-83
2021/01/13 06:20:24;;;;;;;12.75;1.70;;;3.80;87.00;;;;;;5080770;28;20028;-83
2021/01/13 06:22:51;;;;;;;10.23;1.30;;;3.80;87.00;;;;;;5084642;28;20078;-81
2021/01/13 06:25:25;;;;;;;15.77;2.38;;;3.70;87.00;;;;;;5066889;28;20032;-81
2021/01/13 06:28:26;;;;;;;8.90;1.33;;;3.60;87.10;;;;;;5071253;28;20107;-81
2021/01/13 06:31:08;;;;;;;12.88;2.42;;;3.50;87.40;;;;;;5080732;28;20119;-83
2021/01/13 06:33:39;;;;;;;10.07;1.40;;;3.50;87.70;;;;;;5062826;28;20032;-83
2021/01/13 06:36:13;;;;;;;17.15;2.10;;;3.40;87.80;;;;;;5081697;28;20050;-83
2021/01/13 06:38:47;;;;;;;11.02;1.67;;;3.40;87.90;;;;;;5080048;28;20036;-83
2021/01/13 06:41:13;;;;;;;8.98;1.38;;;3.40;88.00;;;;;;5082583;28;20076;-83
2021/01/13 06:44:03;;;;;;;14.40;1.40;;;3.40;87.90;;;;;;5084548;28;20044;-82
2021/01/13 06:46:29;;;;;;;11.90;1.75;;;3.40;87.80;;;;;;5073440;28;20119;-82
2021/01/13 06:48:56;;;;;;;14.10;1.90;;;3.50;88.10;;;;;;5049394;28;20152;-83
2021/01/13 06:51:23;;;;;;;13.27;1.83;;;3.50;87.20;;;;;;5067378;28;20036;-83
2021/01/13 06:53:50;;;;;;;12.05;1.73;;;3.60;87.10;;;;;;5071216;28;20040;-75
2021/01/13 06:56:17;;;;;;;17.50;2.35;;;3.60;87.20;;;;;;5070451;28;20158;-75
2021/01/13 06:59:02;;;;;;;11.75;2.10;;;3.60;87.00;;;;;;5071558;28;20036;-73
2021/01/13 07:01:29;;;;;;;9.18;2.15;;;3.60;87.00;;;;;;5058387;28;20408;-73
2021/01/13 07:03:59;;;;;;;15.63;2.40;;;3.70;87.20;;;;;;5070701;28;20032;-73
2021/01/13 07:06:26;;;;;;;23.23;2.83;;;3.70;87.30;;;;;;5059597;28;20040;-73
2021/01/13 07:08:52;;;;;;;16.30;2.15;;;3.70;87.20;;;;;;5057195;28;20036;-73
2021/01/13 07:11:21;;;;;;;14.38;2.40;;;3.70;87.10;;;;;;5062020;28;20040;-73
2021/01/13 07:13:53;;;;;;;18.58;2.13;;;3.70;87.00;;;;;;5059546;28;20059;-73
2021/01/13 07:16:27;;;;;;;19.60;2.95;;;3.70;87.00;;;;;;5073760;28;20037;-81
2021/01/13 07:18:55;;;;;;;15.77;2.80;;;3.80;86.80;;;;;;5079755;28;20067;-81
2021/01/13 07:21:41;;;;;;;20.85;2.58;;;3.80;86.30;;;;;;5060628;28;20036;-79
2021/01/13 07:24:11;;;;;;;17.38;3.05;;;3.80;86.30;;;;;;5080150;28;20396;-80
2021/01/13 07:26:42;;;;;;;14.52;2.50;;;3.90;86.20;;;;;;5066660;28;20423;-80
2021/01/13 07:29:09;;;;;;;17.77;2.25;;;3.80;86.20;;;;;;5079582;28;20060;-81
2021/01/13 07:31:35;;;;;;;20.40;2.22;;;3.70;86.20;;;;;;5067970;28;20058;-81
2021/01/13 07:34:25;;;;;;;14.40;2.30;;;3.60;86.30;;;;;;5071657;28;20135;-82
2021/01/13 07:36:58;;;;;;;20.20;3.88;;;3.50;86.60;;;;;;5073992;28;20032;-74
2021/01/13 07:39:42;;;;;;;16.70;1.98;;;3.40;86.80;;;;;;5079340;28;20111;-80
2021/01/13 07:42:12;;;;;;;13.13;3.22;;;3.30;86.90;;;;;;5080889;28;20484;-82
2021/01/13 07:44:42;;;;;;;19.52;2.65;;;3.30;87.10;;;;;;5066946;28;20549;-81
2021/01/13 07:47:47;;;;;;;17.05;2.80;;;3.20;87.20;;;;;;5065963;28;20054;-80
2021/01/13 07:50:13;;;;;;;19.58;2.55;;;3.20;87.60;;;;;;5077383;28;22191;-81
2021/01/13 07:52:50;;;;;;;17.88;2.45;;;3.20;87.70;;;;;;5038423;28;20492;-81
2021/01/13 07:55:18;;;;;;;15.90;2.95;;;3.20;87.80;;;;;;5078135;28;20391;-81
2021/01/13 07:57:50;;;;;;;18.65;2.72;;;3.20;87.80;;;;;;5050303;28;20036;-81
2021/01/13 08:00:38;;;;;;;15.63;2.55;;;3.30;87.70;;;;;;5064289;28;20024;-81
2021/01/13 08:03:42;;;;;;;19.42;3.13;;;3.40;87.40;;;;;;5085242;28;20039;-81
2021/01/13 08:06:45;;;;;;;18.15;3.03;;;3.50;87.10;;;;;;5076059;28;20509;-81
2021/01/13 08:09:12;;;;;;;19.87;3.30;;;3.50;86.70;;;;;;5061116;28;20032;-81
2021/01/13 08:12:09;;;;;;;16.60;2.40;;;3.50;86.60;;;;;;5069294;28;20044;-78
2021/01/13 08:14:59;;;;;;;13.82;2.38;;;3.50;86.50;;;;;;5071446;28;20045;-79
2021/01/13 08:18:14;;;;;;;13.73;2.00;;;3.50;86.60;;;;;;5071288;28;20093;-79
2021/01/13 08:21:11;;;;;;;9.02;2.40;;;3.50;86.60;;;;;;5061109;28;20079;-78
2021/01/13 08:23:41;;;;;;;16.25;3.17;;;3.40;86.50;;;;;;5061906;28;20054;-80
2021/01/13 08:26:08;;;;;;;11.82;2.55;;;3.40;86.60;;;;;;5076213;28;20037;-80
2021/01/13 08:28:43;;;;;;;16.85;1.70;;;3.50;86.80;;;;;;5077160;28;20044;-84
2021/01/13 08:31:10;;;;;;;15.75;2.45;;;3.50;86.50;;;;;;5061071;28;20115;-81
2021/01/13 08:33:38;;;;;;;16.52;3.30;;;3.50;86.60;;;;;;5059918;28;20060;-84
2021/01/13 08:36:13;;;;;;;15.63;2.15;;;3.50;86.70;;;;;;5079164;28;20040;-80
2021/01/13 08:39:07;;;;;;;13.98;1.70;;;3.60;86.80;;;;;;5066819;28;20043;-80
2021/01/13 08:41:34;;;;;;;17.55;2.08;;;3.50;86.70;;;;;;5070037;28;20118;-72
2021/01/13 08:44:06;;;;;;;13.65;2.95;;;3.50;86.80;;;;;;5067632;28;20561;-72
2021/01/13 08:46:44;;;;;;;11.93;1.75;;;3.50;86.70;;;;;;5067360;28;20040;-72
2021/01/13 08:49:19;;;;;;;21.33;2.63;;;3.50;86.80;;;;;;5069162;28;20041;-72
2021/01/13 08:52:11;;;;;;;11.45;1.70;;;3.40;86.80;;;;;;5056775;28;20484;-72
2021/01/13 08:54:40;;;;;;;17.80;2.25;;;3.50;87.00;;;;;;5068784;28;20037;-72
2021/01/13 08:57:08;;;;;;;16.10;3.00;;;3.50;87.20;;;;;;5069936;28;20123;-71
2021/01/13 08:59:45;;;;;;;24.77;3.22;;;3.50;87.00;;;;;;5023954;28;20037;-71
2021/01/13 09:02:13;;;;;;;19.65;2.42;;;3.60;86.90;;;;;;5068808;28;20498;-71
2021/01/13 09:04:51;;;;;;;16.55;2.58;;;3.60;86.70;;;;;;5060226;28;20047;-72
2021/01/13 09:07:27;;;;;;;10.80;2.00;;;3.60;86.70;;;;;;5069276;28;20032;-72
2021/01/13 09:10:06;;;;;;;13.82;2.63;;;3.60;86.60;;;;;;5068353;28;20036;-73
2021/01/13 09:12:35;;;;;;;19.30;2.95;;;3.70;86.40;;;;;;5039212;28;20098;-73
2021/01/13 09:15:07;;;;;;;12.48;2.60;;;3.80;86.20;;;;;;5057584;28;20038;-73
2021/01/13 09:17:35;;;;;;;15.35;2.58;;;3.80;85.60;;;;;;5038704;28;20048;-73
2021/01/13 09:20:03;;;;;;;7.97;1.40;;;3.90;85.30;;;;;;5072265;28;20167;-74
2021/01/13 09:22:42;;;;;;;7.18;1.60;;;4.00;84.90;;;;;;5071678;28;20085;-73
2021/01/13 09:25:14;;;;;;;11.75;1.38;;;4.10;84.30;;;;;;5072739;28;20047;-74
2021/01/13 09:27:48;;;;;;;7.35;1.45;;;4.10;84.60;;;;;;5059379;28;20115;-73
2021/01/13 09:30:37;;;;;;;7.33;1.70;;;4.10;84.50;;;;;;5071922;28;20036;-74
2021/01/13 09:33:07;;;;;;;18.20;8.18;;;4.20;84.40;;;;;;5040185;28;20393;-74
2021/01/13 09:35:41;;;;;;;13.82;2.55;;;4.20;84.50;;;;;;5060030;28;20062;-74
2021/01/13 09:38:10;;;;;;;11.07;1.50;;;4.20;84.90;;;;;;5072744;28;20044;-74
2021/01/13 09:40:48;;;;;;;9.70;1.52;;;4.20;85.20;;;;;;5072117;28;20052;-75
2021/01/13 09:43:33;;;;;;;10.43;1.27;;;4.30;85.20;;;;;;5073063;28;20423;-75
2021/01/13 09:46:08;;;;;;;11.23;2.00;;;4.30;85.20;;;;;;5061137;28;20032;-75
2021/01/13 09:48:36;;;;;;;16.10;2.10;;;4.30;85.20;;;;;;5055994;28;20054;-83
2021/01/13 09:51:06;;;;;;;23.25;3.53;;;4.30;85.30;;;;;;5083642;28;20051;-81
2021/01/13 09:53:38;;;;;;;13.50;1.80;;;4.40;85.00;;;;;;5081151;28;20036;-79
2021/01/13 09:56:07;;;;;;;17.23;1.90;;;4.50;85.20;;;;;;5063629;28;20033;-82
2021/01/13 09:58:39;;;;;;;22.17;3.25;;;4.50;84.70;;;;;;5066013;28;20064;-83
2021/01/13 10:01:20;;;;;;;16.63;2.58;;;4.60;84.70;;;;;;5081335;28;20784;-82
2021/01/13 10:03:48;;;;;;;10.63;2.22;;;4.60;84.50;;;;;;5069468;28;20214;-82
2021/01/13 10:06:29;;;;;;;14.07;1.88;;;4.70;84.60;;;;;;5070802;28;20162;-74
2021/01/13 10:08:59;;;;;;;20.40;2.80;;;4.80;84.30;;;;;;5071968;28;20029;-74
2021/01/13 10:11:27;;;;;;;11.77;2.00;;;4.80;83.30;;;;;;5055256;28;20070;-74
2021/01/13 10:14:02;;;;;;;19.40;2.20;;;4.80;83.50;;;;;;5061899;28;20036;-82
2021/01/13 10:16:29;;;;;;;18.60;2.05;;;4.90;83.60;;;;;;5081885;28;20038;-82
2021/01/13 10:18:55;;;;;;;11.15;2.00;;;4.90;83.30;;;;;;5065390;28;20033;-81
2021/01/13 10:21:22;;;;;;;15.60;2.03;;;4.90;82.70;;;;;;5081610;28;20040;-81
2021/01/13 10:23:50;;;;;;;11.75;2.35;;;4.90;82.30;;;;;;5082886;28;20028;-83
2021/01/13 10:26:16;;;;;;;8.60;1.02;;;4.80;81.20;;;;;;5066768;28;20105;-83
2021/01/13 10:28:43;;;;;;;7.22;1.58;;;4.80;81.40;;;;;;5052909;28;20044;-83
2021/01/13 10:31:21;;;;;;;8.38;1.55;;;4.80;81.60;;;;;;5054779;28;20548;-83
2021/01/13 10:33:50;;;;;;;9.50;1.23;;;4.90;81.70;;;;;;5075011;28;20033;-82
2021/01/13 10:36:25;;;;;;;9.32;1.63;;;4.90;81.50;;;;;;5076738;28;20472;-83
2021/01/13 10:38:51;;;;;;;16.52;2.50;;;4.90;80.70;;;;;;5076265;28;20155;-83
2021/01/13 10:41:47;;;;;;;7.50;1.35;;;4.90;81.50;;;;;;5075726;28;20056;-82
2021/01/13 10:44:18;;;;;;;8.88;1.33;;;4.90;80.40;;;;;;5072499;28;20028;-82
2021/01/13 10:46:53;;;;;;;11.85;2.00;;;4.90;81.00;;;;;;5056624;28;20090;-82
2021/01/13 10:49:24;;;;;;;7.50;1.30;;;5.00;81.30;;;;;;5068309;28;20128;-83
2021/01/13 10:52:14;;;;;;;12.32;1.33;;;5.00;80.40;;;;;;5082540;28;20040;-83
2021/01/13 10:54:43;;;;;;;10.27;1.85;;;5.00;80.00;;;;;;5049283;28;20052;-77
2021/01/13 10:57:11;;;;;;;7.50;1.48;;;5.00;79.70;;;;;;5062546;28;20040;-77
2021/01/13 10:59:38;;;;;;;8.80;1.77;;;5.00;80.00;;;;;;5058651;28;20091;-76
2021/01/13 11:02:06;;;;;;;29.23;14.05;;;5.00;80.20;;;;;;5060863;28;20029;-74
2021/01/13 11:04:37;;;;;;;10.10;1.65;;;5.00;80.50;;;;;;5069131;28;20438;-73
2021/01/13 11:07:07;;;;;;;7.60;1.10;;;5.00;80.60;;;;;;5056098;28;20037;-76
2021/01/13 11:09:34;;;;;;;12.95;2.42;;;5.00;81.00;;;;;;5070831;28;20901;-75
2021/01/13 11:12:00;;;;;;;15.23;2.72;;;5.10;80.80;;;;;;5053932;28;20033;-75
2021/01/13 11:14:43;;;;;;;11.77;1.67;;;5.20;81.10;;;;;;5053626;28;20063;-75
2021/01/13 11:17:25;;;;;;;9.65;1.83;;;5.20;81.10;;;;;;5074592;28;20039;-83
2021/01/13 11:19:55;;;;;;;14.93;3.15;;;5.20;80.80;;;;;;5079719;28;20055;-83
2021/01/13 11:22:48;;;;;;;12.43;1.80;;;5.20;80.90;;;;;;5078500;28;20044;-83
2021/01/13 11:26:00;;;;;;;11.82;2.05;;;5.30;81.30;;;;;;5072403;28;20048;-83
2021/01/13 11:28:27;;;;;;;14.10;2.15;;;5.30;81.30;;;;;;5076531;28;20465;-84
2021/01/13 11:30:53;;;;;;;19.50;3.28;;;5.40;80.80;;;;;;5078507;28;20029;-82
2021/01/13 11:33:20;;;;;;;11.60;2.22;;;5.50;80.40;;;;;;5077164;28;20035;-85
2021/01/13 11:35:49;;;;;;;8.77;1.75;;;5.60;80.40;;;;;;5063595;28;20404;-83
2021/01/13 11:38:55;;;;;;;14.15;1.67;;;5.80;78.00;;;;;;5061554;28;20044;-84
2021/01/13 11:41:54;;;;;;;10.65;1.92;;;5.90;78.30;;;;;;5061731;28;20040;-80
2021/01/13 11:44:28;;;;;;;16.38;2.35;;;6.10;78.20;;;;;;5063286;28;20068;-81
2021/01/13 11:47:18;;;;;;;14.77;2.88;;;6.10;77.20;;;;;;5075444;28;20038;-82
2021/01/13 11:49:55;;;;;;;18.30;3.10;;;6.10;77.00;;;;;;5067266;28;20044;-81
2021/01/13 11:52:25;;;;;;;16.85;2.35;;;6.20;76.00;;;;;;5066007;28;20373;-82
2021/01/13 11:54:56;;;;;;;14.70;2.22;;;6.30;76.00;;;;;;5078145;28;20127;-82
2021/01/13 11:57:31;;;;;;;15.07;3.60;;;6.30;76.50;;;;;;5075198;28;20061;-82
2021/01/13 12:00:11;;;;;;;14.70;2.35;;;6.20;75.90;;;;;;5061871;28;20389;-83
2021/01/13 12:02:38;;;;;;;11.45;2.20;;;6.10;75.50;;;;;;5076816;28;20055;-82
2021/01/13 12:05:08;;;;;;;8.40;1.60;;;6.00;75.60;;;;;;5056730;28;20040;-75
2021/01/13 12:07:34;;;;;;;8.35;1.60;;;5.90;76.20;;;;;;5068102;28;20055;-75
2021/01/13 12:10:11;;;;;;;14.13;1.70;;;5.80;77.70;;;;;;5052465;28;20484;-75
2021/01/13 12:12:37;;;;;;;13.18;2.92;;;5.70;78.30;;;;;;5051883;28;20028;-75
2021/01/13 12:15:06;;;;;;;14.85;2.08;;;5.70;78.30;;;;;;5039565;28;20032;-74
2021/01/13 12:17:34;;;;;;;9.32;2.35;;;5.70;78.30;;;;;;5068710;28;20040;-74
2021/01/13 12:20:00;;;;;;;18.00;2.55;;;5.80;78.00;;;;;;5069711;28;20046;-74
2021/01/13 12:22:35;;;;;;;15.98;2.65;;;5.80;77.50;;;;;;5069294;28;20479;-74
2021/01/13 12:25:04;;;;;;;14.75;1.98;;;5.80;76.70;;;;;;5060710;28;20055;-75
2021/01/13 12:27:30;;;;;;;12.32;2.13;;;5.90;77.30;;;;;;5056919;28;20045;-75
2021/01/13 12:30:13;;;;;;;12.18;2.05;;;5.90;77.20;;;;;;5068980;28;20028;-75
2021/01/13 12:32:42;;;;;;;12.50;1.88;;;6.00;76.70;;;;;;5068834;28;20039;-75
2021/01/13 12:35:13;;;;;;;16.95;2.50;;;6.00;76.60;;;;;;5057148;28;20452;-74
2021/01/13 12:37:51;;;;;;;21.67;2.97;;;6.10;76.80;;;;;;5030301;28;20037;-74
2021/01/13 12:40:34;;;;;;;15.13;2.88;;;6.30;77.00;;;;;;5068672;28;20035;-75
2021/01/13 12:43:17;;;;;;;16.40;2.00;;;6.50;76.50;;;;;;5045651;28;20036;-74
2021/01/13 12:45:45;;;;;;;18.08;2.70;;;6.70;76.70;;;;;;5057593;28;20047;-75
2021/01/13 12:48:15;;;;;;;16.33;3.08;;;6.60;76.30;;;;;;5056281;28;20051;-76
2021/01/13 12:50:43;;;;;;;16.63;3.30;;;6.50;77.20;;;;;;5058904;28;20174;-75
2021/01/13 12:53:11;;;;;;;19.30;3.35;;;6.20;82.50;;;;;;5054233;28;20178;-75
2021/01/13 12:55:37;;;;;;;25.83;3.55;;;6.00;84.60;;;;;;5059364;28;20395;-74
2021/01/13 12:58:03;;;;;;;19.38;3.33;;;5.70;83.60;;;;;;5040645;28;20044;-74
2021/01/13 13:00:30;;;;;;;19.17;2.92;;;5.60;82.10;;;;;;5073068;28;20415;-75
2021/01/13 13:02:55;;;;;;;10.77;1.50;;;5.50;82.20;;;;;;5060272;28;20048;-75
2021/01/13 13:05:21;;;;;;;8.55;1.33;;;5.50;81.10;;;;;;5050085;28;20046;-75
2021/01/13 13:07:47;;;;;;;9.10;1.25;;;5.50;78.30;;;;;;5030252;28;20055;-76
2021/01/13 13:10:14;;;;;;;9.40;1.35;;;5.80;78.60;;;;;;5059673;28;20068;-77
2021/01/13 13:12:40;;;;;;;7.05;1.42;;;6.10;76.80;;;;;;5043346;28;20040;-75
2021/01/13 13:15:06;;;;;;;12.77;5.78;;;6.30;76.20;;;;;;5062494;28;20033;-75
2021/01/13 13:17:39;;;;;;;10.95;1.80;;;6.60;77.00;;;;;;5060842;28;20387;-77
2021/01/13 13:20:06;;;;;;;15.13;3.05;;;6.80;75.40;;;;;;5057286;28;20480;-75